FW4376 Weather Reports


time (UTC)temp
F
wind
direction
speed
knots
gust
knots
rain 1hr
in
rain 24hr
in
rain mn
in
humidity
%
barometer
mb
20220812000024 94 71 1.7 4.3 0.00 0.08 0.00 42 1012.9
20220811234514 94 111 0.9 2.6 0.00 0.21 0.00 41 1013.0
20220811233007 95 94 0.9 3.5 0.00 0.21 0.00 40 1013.0
20220811231508 96 4 0.0 4.3 0.00 0.21 0.00 39 1013.0
20220811230014 97 108 1.7 4.3 0.00 0.21 0.00 40 1013.1
20220811224504 97 103 1.7 4.3 0.00 1.27 0.00 38 1013.1
20220811223003 97 226 0.0 4.3 0.00 1.27 0.00 41 1013.0
20220811221501 99 263 0.9 4.3 0.00 1.27 0.00 38 1013.2
20220811220207 99 84 0.9 6.1 0.00 1.27 0.00 39 1013.3
20220811214559 99 123 1.7 5.2 0.00 1.76 0.00 37 1013.3
20220811213103 99 349 1.7 4.3 0.00 1.76 0.00 39 1013.5
20220811211555 99 96 1.7 7.8 0.00 1.76 0.00 38 1013.8
20220811210102 99 27 0.9 4.3 0.00 1.76 0.00 38 1014.0
20220811204628 98 139 1.7 3.5 0.00 1.99 0.00 40 1014.1
20220811203050 97 358 0.9 2.6 0.00 1.99 0.00 45 1014.1
20220811201544 95 56 0.9 4.3 0.00 1.99 0.00 49 1014.3
20220811200132 95 93 0.9 3.5 0.00 1.99 0.00 49 1014.6
20220811194541 96 275 1.7 3.5 0.00 1.99 0.00 48 1014.9
20220811193052 96 162 0.9 4.3 0.00 1.99 0.00 48 1015.2
20220811191633 97 274 0.0 2.6 0.00 1.99 0.00 46 1015.4
20220811190036 96 110 0.9 4.3 0.00 1.99 0.00 51 1015.6
20220811184538 95 151 0.9 3.5 0.00 1.99 0.00 51 1015.8
20220811183035 95 321 0.0 3.5 0.00 1.99 0.00 52 1016.1
20220811181536 95 27 0.9 2.6 0.00 1.99 0.00 54 1016.3
20220811180026 94 268 0.9 3.5 0.00 1.99 0.00 54 1016.4
20220811174550 93 255 0.0 3.5 0.00 1.99 0.00 57 1016.5
20220811173017 92 77 0.9 4.3 0.00 1.99 0.00 58 1016.8
20220811171523 91 256 0.0 2.6 0.00 1.99 0.00 61 1017.0
20220811170028 92 109 0.9 3.5 0.00 1.99 0.00 59 1017.0
20220811164515 91 109 0.0 3.5 0.00 1.99 0.00 62 1017.1
20220811163010 89 288 0.9 4.3 0.00 1.99 0.00 63 1017.1
20220811161509 89 120 0.9 2.6 0.00 1.99 0.00 66 1017.2
20220811160004 88 25 0.9 2.6 0.00 1.99 0.00 68 1017.1
20220811154610 87 184 0.9 2.6 0.00 1.99 0.00 69 1017.3
20220811153106 86 299 0.9 3.5 0.00 1.99 0.00 72 1017.2
20220811151619 85 74 0.0 2.6 0.00 1.99 0.00 73 1017.0
20220811150055 86 37 0.0 2.6 0.00 1.99 0.00 74 1017.3
20220811144550 84 131 0.0 1.7 0.00 1.99 0.00 77 1017.4
20220811143050 84 117 0.0 1.7 0.00 1.99 0.00 76 1017.1
20220811141605 85 23 0.0 0.9 0.00 1.99 0.00 77 1017.3
20220811140106 84 60 0.0 0.9 0.00 1.99 0.00 78 1017.2
20220811134604 81 96 0.0 0.9 0.00 1.99 0.00 84 1017.0
20220811133051 80 255 0.0 0.9 0.00 1.99 0.00 85 1017.0
20220811131551 78 250 0.0 0.0 0.00 1.99 0.00 91 1017.0
20220811130033 75 250 0.0 0.0 0.00 1.99 0.00 93 1017.0
20220811124601 74 250 0.0 0.9 0.00 1.99 0.00 95 1017.0
20220811123032 73 250 0.0 0.9 0.00 1.99 0.00 95 1016.9
20220811121528 72 139 0.0 0.0 0.00 1.99 0.00 95 1017.0
20220811120026 72 120 0.0 0.9 0.00 1.99 0.00 95 1017.0
20220811114525 72 146 0.0 0.9 0.00 1.99 0.00 95 1016.9
20220811113027 71 166 0.0 0.0 0.00 1.99 0.00 95 1016.8
20220811111541 71 166 0.0 0.0 0.00 1.99 0.00 95 1016.7
20220811110023 72 166 0.0 0.0 0.00 1.99 0.00 95 1016.7
20220811104522 72 166 0.0 0.0 0.00 1.99 0.00 95 1016.7
20220811103040 72 180 0.0 0.0 0.00 1.99 0.00 94 1016.7
20220811101519 72 180 0.0 0.0 0.00 1.99 0.00 94 1016.7
20220811100052 72 180 0.0 0.0 0.00 1.99 0.00 94 1016.6
20220811094532 73 163 0.0 0.0 0.00 1.99 0.00 94 1016.6
20220811093019 73 163 0.0 0.0 0.00 1.99 0.00 94 1016.7
20220811091517 73 166 0.0 0.0 0.00 1.99 0.00 94 1016.6
20220811090018 73 220 0.0 0.0 0.00 1.99 0.00 94 1016.7
20220811084517 73 220 0.0 0.0 0.00 1.99 0.00 94 1016.6
20220811083025 73 220 0.0 0.9 0.00 1.99 0.00 94 1016.6
20220811081520 73 231 0.0 0.9 0.00 1.99 0.00 93 1016.6
20220811080029 73 251 0.0 0.9 0.00 1.99 0.00 93 1016.6
20220811074527 73 216 0.0 1.7 0.00 1.99 0.00 93 1016.5
20220811073011 73 197 0.0 0.0 0.00 1.99 0.00 93 1016.6
20220811071509 73 200 0.0 0.0 0.00 1.99 0.00 92 1016.6
20220811070023 74 157 0.0 0.9 0.00 1.99 0.00 92 1016.7
20220811064520 74 108 0.0 0.9 0.00 1.99 0.00 91 1016.8
20220811063012 74 107 0.0 0.9 0.00 1.99 0.00 90 1016.8
20220811061505 74 245 1.7 4.3 0.00 1.99 0.00 90 1016.6
20220811060002 74 238 0.0 2.6 0.00 1.99 0.00 91 1016.7
20220811054505 74 238 0.0 1.7 0.00 1.99 0.00 92 1016.7
20220811053112 75 141 0.0 0.9 0.00 1.99 0.00 91 1016.7
20220811051559 75 158 0.0 0.9 0.00 1.99 0.00 91 1016.8
20220811050057 75 141 0.0 1.7 0.00 1.99 0.00 91 1016.8
20220811044605 75 160 0.0 3.5 0.00 1.99 1.99 91 1016.9
20220811043115 75 138 0.0 2.6 0.00 1.99 1.99 91 1016.8
20220811041650 75 115 0.0 2.6 0.00 1.99 1.99 90 1016.9
20220811040054 75 153 0.0 1.7 0.00 1.99 1.99 90 1017.0
20220811034716 75 164 0.0 0.0 0.00 1.99 1.99 90 1016.8
20220811033100 75 91 0.0 1.7 0.00 1.99 1.99 89 1016.7
20220811030049 75 105 0.9 4.3 0.00 1.99 1.99 89 1016.6
20220811024622 75 94 0.0 2.6 0.00 1.99 1.99 89 1016.6
20220811023059 74 126 0.0 1.7 0.00 1.99 1.99 90 1016.0
20220811021545 75 134 0.0 0.0 0.00 1.99 1.99 90 1015.7
20220811020045 75 101 0.0 0.0 0.00 1.99 1.99 89 1015.4
20220811014557 75 117 0.0 0.0 0.00 1.99 1.99 88 1015.2
20220811013055 75 152 0.0 0.9 0.00 1.99 1.99 88 1015.1
20220811011609 75 232 0.0 0.9 0.00 1.99 1.99 88 1015.0
20220811010048 75 289 0.0 1.7 0.08 1.99 1.99 88 1014.8
20220811004543 75 229 0.0 3.5 0.09 1.99 1.99 86 1014.4
20220811003041 74 270 1.7 7.8 0.09 1.99 1.99 89 1014.9
20220811001541 74 229 3.5 8.7 0.09 1.99 1.99 90 1015.7